createdAt,value
2022-11-04T00:00:33.177Z,-0.55
2022-11-04T00:03:05.986Z,-0.56
2022-11-04T00:05:35.919Z,-0.58
2022-11-04T00:08:21.490Z,-0.56
2022-11-04T00:11:16.829Z,-0.62
2022-11-04T00:13:49.735Z,-0.58
2022-11-04T00:16:37.435Z,-0.62
2022-11-04T00:19:07.116Z,-0.59
2022-11-04T00:21:52.876Z,-0.65
2022-11-04T00:24:38.227Z,-0.65
2022-11-04T00:27:26.844Z,-0.65
2022-11-04T00:29:56.406Z,-0.61
2022-11-04T00:32:42.478Z,-0.56
2022-11-04T00:35:15.267Z,-0.57
2022-11-04T00:37:51.124Z,-0.58
2022-11-04T00:40:21.379Z,-0.55
2022-11-04T00:42:50.906Z,-0.53
2022-11-04T00:45:20.618Z,-0.74
2022-11-04T00:47:47.678Z,-0.57
2022-11-04T00:50:17.720Z,-0.57
2022-11-04T00:52:47.214Z,-0.59
2022-11-04T00:55:34.822Z,-0.55
2022-11-04T00:58:01.881Z,-0.68
2022-11-04T01:00:29.479Z,-0.56
2022-11-04T01:02:59.784Z,-0.58
2022-11-04T01:05:32.649Z,-0.55
2022-11-04T01:09:45.797Z,-0.61
2022-11-04T01:11:02.601Z,-0.50
2022-11-04T01:13:29.642Z,-0.55
2022-11-04T01:16:06.723Z,-0.48
2022-11-04T01:18:35.825Z,-0.48
2022-11-04T01:21:05.522Z,-0.51
2022-11-04T01:23:43.351Z,-0.54
2022-11-04T01:26:19.283Z,-0.56
2022-11-04T01:28:49.951Z,-0.54
2022-11-04T01:31:24.884Z,-0.74
2022-11-04T01:33:55.289Z,-0.46
2022-11-04T01:36:24.991Z,-0.48
2022-11-04T01:38:54.269Z,-0.63
2022-11-04T01:41:32.932Z,-0.60
2022-11-04T01:44:02.411Z,-0.62
2022-11-04T01:46:49.597Z,-0.65
2022-11-04T01:49:30.807Z,-0.66
2022-11-04T01:52:31.030Z,-0.70
2022-11-04T01:55:02.299Z,-0.76
2022-11-04T01:57:40.483Z,-0.81
2022-11-04T02:00:15.052Z,-0.75
2022-11-04T02:03:07.849Z,-0.70
2022-11-04T02:05:37.749Z,-0.74
2022-11-04T02:08:09.617Z,-0.73
2022-11-04T02:10:47.995Z,-0.76
2022-11-04T02:13:15.300Z,-0.72
2022-11-04T02:16:13.323Z,-0.74
2022-11-04T02:18:52.278Z,-0.77
2022-11-04T02:21:31.077Z,-0.87
2022-11-04T02:24:22.629Z,-0.88
2022-11-04T02:27:27.510Z,-0.87
2022-11-04T02:30:17.358Z,-0.85
2022-11-04T02:32:50.301Z,-0.83
2022-11-04T02:35:39.106Z,-0.80
2022-11-04T02:38:30.196Z,-0.81
2022-11-04T02:41:07.444Z,-0.81
2022-11-04T02:43:48.626Z,-0.84
2022-11-04T02:46:37.368Z,-0.77
2022-11-04T02:49:15.901Z,-0.73
2022-11-04T02:51:57.415Z,-0.76
2022-11-04T02:54:48.988Z,-0.76
2022-11-04T02:57:22.439Z,-0.83
2022-11-04T03:00:04.591Z,-0.80
2022-11-04T03:02:38.423Z,-0.86
2022-11-04T03:05:08.441Z,-0.83
2022-11-04T03:07:39.779Z,-0.81
2022-11-04T03:10:16.925Z,-0.79
2022-11-04T03:12:50.715Z,-0.82
2022-11-04T03:15:27.092Z,-0.80
2022-11-04T03:18:04.435Z,-0.81
2022-11-04T03:20:31.873Z,-0.81
2022-11-04T03:23:00.407Z,-0.82
2022-11-04T03:25:36.890Z,-0.93
2022-11-04T03:28:15.799Z,-0.93
2022-11-04T03:30:47.830Z,-0.87
2022-11-04T03:33:24.919Z,-0.87
2022-11-04T03:35:56.686Z,-0.91
2022-11-04T03:38:24.214Z,-1.09
2022-11-04T03:40:52.197Z,-1.09
2022-11-04T03:43:26.117Z,-0.88
2022-11-04T03:45:54.725Z,-1.11
2022-11-04T03:48:23.017Z,-0.97
2022-11-04T03:50:51.298Z,-1.03
2022-11-04T03:53:23.518Z,-0.95
2022-11-04T03:56:06.681Z,-1.01
2022-11-04T03:58:34.001Z,-0.93
2022-11-04T04:01:11.228Z,-1.08
2022-11-04T04:03:50.216Z,-1.00
2022-11-04T04:06:23.669Z,-0.99
2022-11-04T04:08:56.080Z,-1.05
2022-11-04T04:11:39.374Z,-1.05
2022-11-04T04:14:10.672Z,-1.16
2022-11-04T04:16:43.634Z,-1.12
2022-11-04T04:19:24.353Z,-1.15
2022-11-04T04:22:01.675Z,-0.97
2022-11-04T04:24:58.765Z,-1.09
2022-11-04T04:27:32.770Z,-1.01
2022-11-04T04:30:09.694Z,-1.05
2022-11-04T04:32:53.955Z,-1.01
2022-11-04T04:35:42.442Z,-0.98
2022-11-04T04:38:42.645Z,-0.87
2022-11-04T04:41:36.744Z,-0.88
2022-11-04T04:44:29.997Z,-0.82
2022-11-04T04:46:58.515Z,-0.91
2022-11-04T04:49:35.281Z,-0.85
2022-11-04T04:52:04.689Z,-0.87
2022-11-04T04:54:31.700Z,-0.94
2022-11-04T04:56:58.643Z,-0.91
2022-11-04T04:59:25.610Z,-0.85
2022-11-04T05:01:52.871Z,-0.84
2022-11-04T05:04:19.860Z,-0.97
2022-11-04T05:06:46.805Z,-0.96
2022-11-04T05:09:13.709Z,-1.05
2022-11-04T05:14:47.869Z,-1.00
2022-11-04T05:17:15.761Z,-0.96
2022-11-04T05:19:42.815Z,-1.04
2022-11-04T05:22:11.744Z,-1.06
2022-11-04T05:24:38.761Z,-0.94
2022-11-04T05:27:05.715Z,-0.93
2022-11-04T05:29:32.707Z,-0.93
2022-11-04T05:31:59.620Z,-0.92
2022-11-04T05:34:26.611Z,-0.94
2022-11-04T05:36:53.746Z,-0.93
2022-11-04T05:39:20.890Z,-0.88
2022-11-04T05:41:47.891Z,-0.76
2022-11-04T05:44:15.903Z,-0.80
2022-11-04T05:46:42.980Z,-0.69
2022-11-04T05:49:15.474Z,-0.59
2022-11-04T05:51:45.736Z,-0.59
2022-11-04T05:54:12.697Z,-0.58
2022-11-04T05:56:39.797Z,-0.50
2022-11-04T05:59:06.726Z,-0.45
2022-11-04T06:01:36.517Z,-0.42
2022-11-04T06:04:05.460Z,-0.45
2022-11-04T06:06:36.927Z,-0.45
2022-11-04T06:09:04.060Z,-0.33
2022-11-04T06:11:31.666Z,-0.19
2022-11-04T06:13:58.804Z,-0.15
2022-11-04T06:16:27.234Z,-0.19
2022-11-04T06:18:54.705Z,-0.16
2022-11-04T06:21:33.648Z,-0.11
2022-11-04T06:24:00.809Z,-0.03
2022-11-04T06:26:30.923Z,0.02
2022-11-04T06:28:58.060Z,0.07
2022-11-04T06:31:25.062Z,0.10
2022-11-04T06:33:52.060Z,0.03
2022-11-04T06:36:19.277Z,-0.05
2022-11-04T06:38:46.438Z,0.03
2022-11-04T06:41:20.902Z,0.00
2022-11-04T06:43:48.255Z,0.05
2022-11-04T06:46:26.466Z,0.03
2022-11-04T06:48:54.002Z,0.19
2022-11-04T06:51:21.137Z,0.21
2022-11-04T06:53:51.653Z,0.17
2022-11-04T06:56:20.901Z,0.35
2022-11-04T06:58:49.463Z,0.06
2022-11-04T07:01:21.738Z,0.27
2022-11-04T07:03:51.139Z,0.33
2022-11-04T07:06:22.058Z,0.35
2022-11-04T07:09:19.993Z,0.47
2022-11-04T07:11:47.923Z,0.29
2022-11-04T07:14:14.939Z,0.41
2022-11-04T07:16:51.617Z,0.51
2022-11-04T07:19:19.199Z,0.58
2022-11-04T07:21:46.193Z,0.42
2022-11-04T07:24:13.423Z,0.52
2022-11-04T07:26:44.288Z,0.56
2022-11-04T07:29:11.714Z,0.58
2022-11-04T07:31:40.076Z,0.51
2022-11-04T07:34:07.468Z,0.64
2022-11-04T07:36:34.423Z,0.61
2022-11-04T07:39:02.173Z,0.72
2022-11-04T07:41:29.736Z,0.74
2022-11-04T07:43:59.015Z,0.87
2022-11-04T07:46:26.016Z,1.02
2022-11-04T07:48:52.986Z,1.13
2022-11-04T07:51:21.197Z,1.16
2022-11-04T07:53:48.212Z,1.23
2022-11-04T07:56:19.677Z,1.23
2022-11-04T07:58:46.710Z,1.29
2022-11-04T08:01:17.162Z,1.34
2022-11-04T08:03:44.758Z,1.35
2022-11-04T08:06:15.374Z,1.34
2022-11-04T08:08:45.808Z,1.34
2022-11-04T08:11:17.615Z,1.35
2022-11-04T08:13:45.919Z,1.33
2022-11-04T08:16:19.128Z,1.27
2022-11-04T08:18:48.704Z,1.18
2022-11-04T08:21:17.134Z,1.17
2022-11-04T08:23:44.605Z,1.03
2022-11-04T08:26:13.533Z,1.08
2022-11-04T08:28:40.694Z,0.98
2022-11-04T08:31:14.432Z,1.09
2022-11-04T08:33:41.359Z,1.20
2022-11-04T08:36:15.046Z,1.20
2022-11-04T08:38:41.973Z,1.20
2022-11-04T08:41:10.486Z,1.18
2022-11-04T08:43:37.990Z,1.16
2022-11-04T08:46:10.206Z,1.10
2022-11-04T08:48:38.770Z,1.08
2022-11-04T08:51:10.867Z,1.05
2022-11-04T08:53:38.084Z,1.09
2022-11-04T08:56:18.295Z,1.06
2022-11-04T08:58:45.765Z,1.15
2022-11-04T09:01:13.000Z,1.16
2022-11-04T09:03:41.810Z,1.15
2022-11-04T09:06:12.773Z,1.12
2022-11-04T09:08:40.265Z,1.16
2022-11-04T09:11:15.469Z,1.07
2022-11-04T09:13:44.203Z,0.97
2022-11-04T09:16:14.149Z,1.10
2022-11-04T09:18:41.656Z,1.09
2022-11-04T09:21:10.673Z,1.08
2022-11-04T09:23:38.489Z,1.08
2022-11-04T09:26:11.344Z,1.06
2022-11-04T09:28:38.802Z,1.00
2022-11-04T09:31:10.362Z,0.88
2022-11-04T09:33:37.802Z,1.15
2022-11-04T09:36:05.047Z,1.17
2022-11-04T09:38:32.449Z,1.29
2022-11-04T09:41:00.115Z,1.33
2022-11-04T09:43:26.989Z,1.36
2022-11-04T09:45:56.805Z,1.38
2022-11-04T09:48:28.861Z,1.37
2022-11-04T09:51:00.634Z,1.33
2022-11-04T09:53:37.782Z,1.32
2022-11-04T09:56:17.216Z,1.39
2022-11-04T09:58:44.464Z,1.49
2022-11-04T10:01:28.273Z,1.59
2022-11-04T10:04:01.603Z,1.67
2022-11-04T10:07:05.809Z,1.66
2022-11-04T10:09:54.172Z,1.65
2022-11-04T10:12:39.696Z,1.55
2022-11-04T10:15:34.545Z,1.52
2022-11-04T10:18:35.603Z,1.51
2022-11-04T10:21:19.069Z,1.51
2022-11-04T10:23:53.814Z,1.41
2022-11-04T10:27:00.734Z,1.39
2022-11-04T10:29:36.746Z,1.37
2022-11-04T10:32:19.455Z,1.32
2022-11-04T10:35:00.929Z,1.26
2022-11-04T10:37:28.490Z,1.21
2022-11-04T10:40:15.749Z,1.40
2022-11-04T10:42:42.972Z,1.41
2022-11-04T10:45:14.147Z,1.43
2022-11-04T10:47:56.707Z,1.27
2022-11-04T10:50:42.370Z,1.49
2022-11-04T10:53:29.454Z,1.42
2022-11-04T10:56:33.910Z,1.44
2022-11-04T10:59:20.215Z,1.34
2022-11-04T11:01:58.633Z,1.26
2022-11-04T11:04:27.816Z,1.23
2022-11-04T11:06:57.138Z,1.15
2022-11-04T11:09:33.711Z,1.13
2022-11-04T11:12:29.560Z,1.07
2022-11-04T11:14:58.548Z,1.01
2022-11-04T11:17:47.157Z,1.06
2022-11-04T11:20:15.171Z,1.10
2022-11-04T11:22:44.088Z,1.12
2022-11-04T11:25:36.077Z,1.21
2022-11-04T11:28:11.242Z,1.23
2022-11-04T11:30:44.567Z,1.31
2022-11-04T11:33:31.190Z,1.35
2022-11-04T11:36:23.261Z,1.38
2022-11-04T11:38:55.143Z,1.40
2022-11-04T11:41:31.709Z,1.38
2022-11-04T11:44:23.557Z,1.30
2022-11-04T11:46:56.658Z,1.24
2022-11-04T11:49:30.607Z,1.28
2022-11-04T11:52:22.804Z,1.20
2022-11-04T11:54:53.532Z,1.23
2022-11-04T12:00:48.672Z,1.14
2022-11-04T12:03:31.196Z,0.99
2022-11-04T12:09:41.511Z,1.04
2022-11-04T12:12:27.304Z,1.03
2022-11-04T12:15:09.323Z,1.03
2022-11-04T12:18:23.897Z,1.06
2022-11-04T12:21:03.427Z,1.06
2022-11-04T12:24:03.254Z,1.06
2022-11-04T12:26:41.990Z,1.00
2022-11-04T12:29:47.679Z,1.05
2022-11-04T12:32:35.239Z,1.07
2022-11-04T12:35:12.183Z,1.10
2022-11-04T12:38:01.826Z,1.08
2022-11-04T12:40:37.851Z,1.16
2022-11-04T12:43:23.113Z,1.21
2022-11-04T12:46:03.637Z,1.20
2022-11-04T12:48:57.047Z,1.20
2022-11-04T12:52:00.435Z,1.13
2022-11-04T12:54:45.631Z,1.14
2022-11-04T12:57:33.481Z,1.13
2022-11-04T13:00:14.335Z,1.11
2022-11-04T13:02:51.068Z,1.03
2022-11-04T13:05:23.943Z,1.09
2022-11-04T13:08:17.201Z,1.10
2022-11-04T13:10:54.986Z,0.87
2022-11-04T13:13:32.006Z,1.08
2022-11-04T13:16:03.568Z,1.02
2022-11-04T13:18:35.488Z,1.08
2022-11-04T13:21:10.214Z,1.17
2022-11-04T13:23:52.652Z,1.19
2022-11-04T13:26:19.799Z,1.19
2022-11-04T13:29:04.293Z,1.08
2022-11-04T13:31:57.839Z,1.14
2022-11-04T13:34:43.497Z,1.13
2022-11-04T13:37:37.888Z,1.13
2022-11-04T13:40:15.566Z,1.17
2022-11-04T13:43:21.191Z,1.15
2022-11-04T13:45:55.368Z,1.10
2022-11-04T13:48:27.775Z,1.10
2022-11-04T13:51:07.461Z,1.11
2022-11-04T13:53:57.300Z,1.11
2022-11-04T13:56:33.448Z,1.04
2022-11-04T14:00:11.055Z,1.13
2022-11-04T14:02:39.900Z,1.13
2022-11-04T14:05:28.725Z,1.15
2022-11-04T14:08:01.782Z,1.14
2022-11-04T14:10:50.505Z,1.15
2022-11-04T14:13:27.452Z,1.14
2022-11-04T14:16:26.024Z,1.13
2022-11-04T14:18:54.386Z,1.12
2022-11-04T14:21:24.444Z,1.12
2022-11-04T14:23:56.654Z,1.00
2022-11-04T14:27:21.199Z,0.85
2022-11-04T14:30:33.757Z,1.18
2022-11-04T14:33:53.695Z,1.19
2022-11-04T14:36:39.431Z,0.93
2022-11-04T14:39:21.728Z,1.13
2022-11-04T14:46:06.539Z,1.11
2022-11-04T14:48:35.165Z,0.94
2022-11-04T14:51:05.519Z,1.08
2022-11-04T14:53:38.160Z,1.14
2022-11-04T14:56:23.788Z,1.00
2022-11-04T14:58:59.419Z,1.23
2022-11-04T15:01:34.083Z,1.17
2022-11-04T15:04:26.456Z,1.17
2022-11-04T15:07:04.936Z,1.15
2022-11-04T15:09:47.387Z,1.18
2022-11-04T15:12:36.433Z,1.26
2022-11-04T15:15:29.281Z,1.19
2022-11-04T15:18:09.483Z,1.15
2022-11-04T15:20:41.602Z,1.27
2022-11-04T15:23:14.874Z,1.21
2022-11-04T15:25:53.674Z,1.22
2022-11-04T15:28:38.973Z,0.99
2022-11-04T15:31:17.499Z,0.98
2022-11-04T15:33:47.044Z,0.85
2022-11-04T15:36:20.198Z,0.92
2022-11-04T15:39:14.731Z,1.07
2022-11-04T15:42:03.650Z,1.11
2022-11-04T15:44:33.358Z,1.15
2022-11-04T15:47:46.593Z,1.23
2022-11-04T15:50:29.275Z,1.24
2022-11-04T15:52:56.734Z,1.13
2022-11-04T15:55:49.117Z,1.28
2022-11-04T15:58:41.763Z,1.31
2022-11-04T16:01:17.242Z,1.24
2022-11-04T16:03:55.804Z,1.20
2022-11-04T16:06:37.965Z,1.30
2022-11-04T16:09:20.306Z,1.21
2022-11-04T16:12:15.400Z,1.31
2022-11-04T16:14:53.545Z,1.20
2022-11-04T16:17:21.726Z,1.35
2022-11-04T16:20:50.388Z,1.37
2022-11-04T16:23:21.567Z,1.32
2022-11-04T16:26:07.227Z,1.34
2022-11-04T16:28:42.345Z,1.38
2022-11-04T16:31:23.206Z,1.38
2022-11-04T16:33:50.866Z,1.20
2022-11-04T16:36:23.836Z,1.38
2022-11-04T16:38:58.609Z,1.35
2022-11-04T16:41:29.359Z,1.35
2022-11-04T16:43:56.586Z,1.24
2022-11-04T16:46:23.628Z,1.28
2022-11-04T16:48:50.768Z,1.35
2022-11-04T16:51:20.992Z,1.37
2022-11-04T16:54:21.428Z,1.39
2022-11-04T16:56:48.730Z,1.34
2022-11-04T16:59:17.001Z,1.14
2022-11-04T17:02:00.527Z,1.38
2022-11-04T17:04:27.537Z,1.24
2022-11-04T17:06:59.938Z,1.36
2022-11-04T17:09:26.879Z,1.37
2022-11-04T17:11:56.953Z,1.36
2022-11-04T17:14:26.199Z,1.40
2022-11-04T17:16:53.442Z,1.30
2022-11-04T17:19:21.003Z,1.33
2022-11-04T17:21:48.427Z,1.36
2022-11-04T17:24:15.731Z,1.12
2022-11-04T17:26:43.323Z,1.26
2022-11-04T17:29:22.446Z,1.37
2022-11-04T17:31:49.475Z,1.39
2022-11-04T17:34:16.674Z,1.29
2022-11-04T17:36:43.916Z,1.21
2022-11-04T17:39:11.102Z,1.35
2022-11-04T17:41:56.493Z,1.39
2022-11-04T17:44:23.518Z,1.29
2022-11-04T17:46:50.610Z,1.37
2022-11-04T17:49:20.776Z,1.39
2022-11-04T17:51:50.839Z,1.32
2022-11-04T17:54:25.083Z,1.34
2022-11-04T17:56:52.187Z,1.42
2022-11-04T17:59:19.384Z,1.44
2022-11-04T18:01:46.687Z,1.44
2022-11-04T18:04:17.264Z,1.40
2022-11-04T18:07:09.921Z,1.53
2022-11-04T18:09:43.455Z,1.42
2022-11-04T18:12:30.847Z,1.45
2022-11-04T18:14:57.968Z,1.45
2022-11-04T18:17:41.670Z,1.38
2022-11-04T18:20:13.944Z,1.45
2022-11-04T18:23:06.557Z,1.45
2022-11-04T18:25:40.105Z,1.42
2022-11-04T18:28:07.361Z,1.36
2022-11-04T18:30:34.378Z,1.34
2022-11-04T18:33:01.577Z,1.34
2022-11-04T18:35:35.649Z,1.37
2022-11-04T18:38:03.065Z,1.45
2022-11-04T18:40:30.717Z,1.49
2022-11-04T18:42:57.683Z,1.45
2022-11-04T18:45:24.947Z,1.43
2022-11-04T18:47:51.887Z,1.37
2022-11-04T18:50:26.758Z,1.42
2022-11-04T18:52:55.856Z,1.53
2022-11-04T18:55:23.949Z,1.57
2022-11-04T18:57:55.524Z,1.55
2022-11-04T19:00:22.812Z,1.52
2022-11-04T19:02:50.070Z,1.41
2022-11-04T19:05:17.545Z,1.41
2022-11-04T19:07:44.526Z,1.47
2022-11-04T19:10:16.114Z,1.43
2022-11-04T19:13:01.389Z,1.41
2022-11-04T19:15:34.181Z,1.37
2022-11-04T19:18:03.263Z,1.49
2022-11-04T19:20:30.571Z,1.42
2022-11-04T19:22:57.487Z,1.44
2022-11-04T19:25:24.908Z,1.39
2022-11-04T19:28:26.791Z,1.50
2022-11-04T19:30:40.208Z,1.52
2022-11-04T19:33:08.346Z,1.54
2022-11-04T19:35:59.865Z,1.54
2022-11-04T19:38:27.309Z,1.49
2022-11-04T19:40:55.697Z,1.55
2022-11-04T19:43:26.230Z,1.52
2022-11-04T19:45:53.349Z,1.57
2022-11-04T19:48:20.369Z,1.57
2022-11-04T19:50:49.429Z,1.60
2022-11-04T19:53:17.284Z,1.44
2022-11-04T19:55:53.142Z,1.55
2022-11-04T19:58:22.557Z,1.54
2022-11-04T20:00:49.991Z,1.57
2022-11-04T20:03:17.659Z,1.52
2022-11-04T20:05:45.225Z,1.62
2022-11-04T20:08:12.780Z,1.64
2022-11-04T20:10:42.952Z,1.61
2022-11-04T20:13:36.955Z,1.62
2022-11-04T20:16:13.989Z,1.58
2022-11-04T20:18:40.895Z,1.58
2022-11-04T20:21:07.969Z,1.61
2022-11-04T20:23:34.949Z,1.55
2022-11-04T20:26:21.032Z,1.58
2022-11-04T20:28:48.274Z,1.53
2022-11-04T20:31:20.764Z,1.50
2022-11-04T20:33:48.847Z,1.51
2022-11-04T20:36:18.568Z,1.49
2022-11-04T20:38:48.293Z,1.40
2022-11-04T20:41:20.135Z,1.44
2022-11-04T20:43:48.665Z,1.38
2022-11-04T20:46:22.424Z,1.37
2022-11-04T20:48:50.613Z,1.28
2022-11-04T20:51:31.160Z,1.37
2022-11-04T20:54:00.753Z,1.27
2022-11-04T20:56:32.836Z,1.30
2022-11-04T20:59:00.760Z,1.34
2022-11-04T21:01:30.675Z,1.22
2022-11-04T21:04:15.133Z,1.36
2022-11-04T21:06:42.703Z,1.30
2022-11-04T21:09:12.799Z,1.32
2022-11-04T21:11:41.185Z,1.32
2022-11-04T21:14:11.551Z,1.32
2022-11-04T21:16:38.631Z,1.23
2022-11-04T21:19:06.855Z,1.23
2022-11-04T21:21:33.870Z,1.15
2022-11-04T21:24:04.121Z,1.29
2022-11-04T21:26:34.320Z,1.33
2022-11-04T21:29:06.698Z,1.33
2022-11-04T21:31:35.398Z,1.30
2022-11-04T21:34:09.208Z,1.31
2022-11-04T21:36:37.387Z,1.33
2022-11-04T21:39:05.334Z,1.37
2022-11-04T21:41:33.868Z,1.40
2022-11-04T21:44:03.085Z,1.34
2022-11-04T21:46:31.895Z,1.33
2022-11-04T21:48:59.473Z,1.30
2022-11-04T21:51:31.725Z,1.26
2022-11-04T21:53:59.389Z,1.23
2022-11-04T21:56:28.536Z,1.17
2022-11-04T21:58:56.048Z,1.07
2022-11-04T22:01:26.442Z,1.14
2022-11-04T22:03:56.009Z,1.15
2022-11-04T22:06:23.061Z,1.06
2022-11-04T22:08:54.429Z,1.08
2022-11-04T22:11:23.273Z,1.18
2022-11-04T22:13:54.490Z,1.12
2022-11-04T22:16:23.801Z,1.04
2022-11-04T22:18:56.951Z,1.16
2022-11-04T22:21:24.874Z,1.21
2022-11-04T22:23:51.981Z,1.13
2022-11-04T22:26:30.559Z,1.23
2022-11-04T22:28:58.259Z,1.17
2022-11-04T22:31:27.716Z,1.20
2022-11-04T22:33:56.662Z,1.05
2022-11-04T22:36:23.935Z,1.14
2022-11-04T22:38:50.955Z,1.11
2022-11-04T22:41:20.879Z,1.14
2022-11-04T22:43:50.587Z,1.13
2022-11-04T22:46:23.419Z,1.13
2022-11-04T22:48:50.578Z,1.11
2022-11-04T22:51:18.258Z,1.09
2022-11-04T22:53:47.287Z,1.04
2022-11-04T22:56:16.675Z,1.10
2022-11-04T22:58:45.585Z,1.06
2022-11-04T23:01:14.845Z,1.09
2022-11-04T23:03:42.280Z,1.05
2022-11-04T23:06:10.559Z,1.11
2022-11-04T23:08:38.908Z,1.10
2022-11-04T23:11:34.692Z,1.03
2022-11-04T23:14:21.221Z,1.14
2022-11-04T23:17:10.820Z,1.06
2022-11-04T23:19:38.731Z,1.12
2022-11-04T23:22:25.209Z,1.12
2022-11-04T23:25:09.586Z,1.09
2022-11-04T23:28:04.195Z,1.14
2022-11-04T23:30:59.527Z,1.11
2022-11-04T23:33:45.144Z,1.08
2022-11-04T23:36:31.142Z,1.02
2022-11-04T23:38:58.085Z,0.98
2022-11-04T23:41:43.710Z,1.01
2022-11-04T23:44:35.290Z,1.06
2022-11-04T23:47:20.873Z,1.06
2022-11-04T23:50:06.230Z,1.12
2022-11-04T23:52:52.363Z,1.10
2022-11-04T23:55:37.811Z,1.20
2022-11-04T23:58:39.975Z,1.14
